sensor_id;sensor_type;location;lat;lon;timestamp;P1;durP1;ratioP1;P2;durP2;ratioP2
15573;SDS011;7888;46.748;8.102;2023-04-25T00:00:18;1.63;;;1.00;;
15573;SDS011;7888;46.748;8.102;2023-04-25T00:02:44;2.30;;;1.10;;
15573;SDS011;7888;46.748;8.102;2023-04-25T00:05:11;2.30;;;1.10;;
15573;SDS011;7888;46.748;8.102;2023-04-25T00:07:39;3.33;;;1.00;;
15573;SDS011;7888;46.748;8.102;2023-04-25T00:10:08;1.97;;;1.10;;
15573;SDS011;7888;46.748;8.102;2023-04-25T00:12:36;1.40;;;1.10;;
15573;SDS011;7888;46.748;8.102;2023-04-25T00:15:02;1.20;;;1.10;;
15573;SDS011;7888;46.748;8.102;2023-04-25T00:17:29;1.30;;;0.93;;
15573;SDS011;7888;46.748;8.102;2023-04-25T00:19:56;5.37;;;1.20;;
15573;SDS011;7888;46.748;8.102;2023-04-25T00:22:23;2.50;;;1.23;;
15573;SDS011;7888;46.748;8.102;2023-04-25T00:24:49;1.80;;;1.03;;
15573;SDS011;7888;46.748;8.102;2023-04-25T00:27:15;3.10;;;1.07;;
15573;SDS011;7888;46.748;8.102;2023-04-25T00:29:41;1.80;;;1.00;;
15573;SDS011;7888;46.748;8.102;2023-04-25T00:32:07;2.40;;;1.20;;
15573;SDS011;7888;46.748;8.102;2023-04-25T00:34:33;2.47;;;1.17;;
15573;SDS011;7888;46.748;8.102;2023-04-25T00:36:59;1.93;;;1.10;;
15573;SDS011;7888;46.748;8.102;2023-04-25T00:39:27;2.20;;;1.00;;
15573;SDS011;7888;46.748;8.102;2023-04-25T00:41:53;1.40;;;0.90;;
15573;SDS011;7888;46.748;8.102;2023-04-25T00:44:21;1.47;;;1.07;;
15573;SDS011;7888;46.748;8.102;2023-04-25T00:46:47;2.10;;;1.43;;
15573;SDS011;7888;46.748;8.102;2023-04-25T00:49:16;1.73;;;1.20;;
15573;SDS011;7888;46.748;8.102;2023-04-25T00:51:42;2.83;;;1.40;;
15573;SDS011;7888;46.748;8.102;2023-04-25T00:54:10;1.13;;;0.90;;
15573;SDS011;7888;46.748;8.102;2023-04-25T00:56:38;1.83;;;0.90;;
15573;SDS011;7888;46.748;8.102;2023-04-25T00:59:04;2.40;;;1.00;;
15573;SDS011;7888;46.748;8.102;2023-04-25T01:01:30;1.83;;;0.93;;
15573;SDS011;7888;46.748;8.102;2023-04-25T01:03:58;1.43;;;1.00;;
15573;SDS011;7888;46.748;8.102;2023-04-25T01:06:26;2.10;;;1.00;;
15573;SDS011;7888;46.748;8.102;2023-04-25T01:08:52;5.03;;;1.40;;
15573;SDS011;7888;46.748;8.102;2023-04-25T01:11:19;2.87;;;1.23;;
15573;SDS011;7888;46.748;8.102;2023-04-25T01:13:45;2.67;;;1.30;;
15573;SDS011;7888;46.748;8.102;2023-04-25T01:16:10;2.53;;;1.23;;
15573;SDS011;7888;46.748;8.102;2023-04-25T01:18:38;1.60;;;0.90;;
15573;SDS011;7888;46.748;8.102;2023-04-25T01:21:06;1.90;;;1.10;;
15573;SDS011;7888;46.748;8.102;2023-04-25T01:23:35;1.53;;;1.13;;
15573;SDS011;7888;46.748;8.102;2023-04-25T01:26:02;4.27;;;1.47;;
15573;SDS011;7888;46.748;8.102;2023-04-25T01:28:28;3.00;;;1.30;;
15573;SDS011;7888;46.748;8.102;2023-04-25T01:30:55;3.23;;;1.70;;
15573;SDS011;7888;46.748;8.102;2023-04-25T01:33:22;2.13;;;0.97;;
15573;SDS011;7888;46.748;8.102;2023-04-25T01:35:48;4.87;;;1.00;;
15573;SDS011;7888;46.748;8.102;2023-04-25T01:38:14;2.20;;;1.03;;
15573;SDS011;7888;46.748;8.102;2023-04-25T01:40:40;2.30;;;1.20;;
15573;SDS011;7888;46.748;8.102;2023-04-25T01:43:09;1.50;;;1.00;;
15573;SDS011;7888;46.748;8.102;2023-04-25T01:45:37;1.80;;;1.27;;
15573;SDS011;7888;46.748;8.102;2023-04-25T01:48:06;2.47;;;1.10;;
15573;SDS011;7888;46.748;8.102;2023-04-25T01:50:34;2.17;;;0.97;;
15573;SDS011;7888;46.748;8.102;2023-04-25T01:53:00;2.33;;;1.13;;
15573;SDS011;7888;46.748;8.102;2023-04-25T01:55:27;1.60;;;1.10;;
15573;SDS011;7888;46.748;8.102;2023-04-25T01:57:53;3.27;;;1.20;;
15573;SDS011;7888;46.748;8.102;2023-04-25T02:00:19;3.23;;;1.40;;
15573;SDS011;7888;46.748;8.102;2023-04-25T02:02:45;1.60;;;1.00;;
15573;SDS011;7888;46.748;8.102;2023-04-25T02:05:11;1.53;;;1.27;;
15573;SDS011;7888;46.748;8.102;2023-04-25T02:07:37;1.53;;;0.83;;
15573;SDS011;7888;46.748;8.102;2023-04-25T02:10:03;2.50;;;1.20;;
15573;SDS011;7888;46.748;8.102;2023-04-25T02:12:30;2.97;;;1.20;;
15573;SDS011;7888;46.748;8.102;2023-04-25T02:14:56;2.17;;;1.10;;
15573;SDS011;7888;46.748;8.102;2023-04-25T02:17:22;2.17;;;1.37;;
15573;SDS011;7888;46.748;8.102;2023-04-25T02:19:48;1.43;;;1.03;;
15573;SDS011;7888;46.748;8.102;2023-04-25T02:22:15;3.73;;;1.40;;
15573;SDS011;7888;46.748;8.102;2023-04-25T02:24:40;1.63;;;1.07;;
15573;SDS011;7888;46.748;8.102;2023-04-25T02:27:06;2.57;;;1.07;;
15573;SDS011;7888;46.748;8.102;2023-04-25T02:29:32;3.13;;;1.20;;
15573;SDS011;7888;46.748;8.102;2023-04-25T02:31:58;2.03;;;1.10;;
15573;SDS011;7888;46.748;8.102;2023-04-25T02:34:24;2.00;;;1.00;;
15573;SDS011;7888;46.748;8.102;2023-04-25T02:36:50;2.47;;;1.20;;
15573;SDS011;7888;46.748;8.102;2023-04-25T02:39:16;2.13;;;1.20;;
15573;SDS011;7888;46.748;8.102;2023-04-25T02:41:42;3.40;;;1.20;;
15573;SDS011;7888;46.748;8.102;2023-04-25T02:44:08;1.30;;;0.97;;
15573;SDS011;7888;46.748;8.102;2023-04-25T02:46:33;1.70;;;1.43;;
15573;SDS011;7888;46.748;8.102;2023-04-25T02:48:59;2.60;;;1.10;;
15573;SDS011;7888;46.748;8.102;2023-04-25T02:51:25;2.83;;;1.30;;
15573;SDS011;7888;46.748;8.102;2023-04-25T02:53:51;2.73;;;1.17;;
15573;SDS011;7888;46.748;8.102;2023-04-25T02:56:17;1.77;;;1.30;;
15573;SDS011;7888;46.748;8.102;2023-04-25T02:58:43;2.40;;;1.13;;
15573;SDS011;7888;46.748;8.102;2023-04-25T03:01:10;2.70;;;1.07;;
15573;SDS011;7888;46.748;8.102;2023-04-25T03:03:36;2.40;;;1.00;;
15573;SDS011;7888;46.748;8.102;2023-04-25T03:06:01;3.67;;;1.30;;
15573;SDS011;7888;46.748;8.102;2023-04-25T03:08:27;1.53;;;1.00;;
15573;SDS011;7888;46.748;8.102;2023-04-25T03:10:57;1.90;;;1.00;;
15573;SDS011;7888;46.748;8.102;2023-04-25T03:13:23;1.57;;;1.20;;
15573;SDS011;7888;46.748;8.102;2023-04-25T03:15:49;3.37;;;1.30;;
15573;SDS011;7888;46.748;8.102;2023-04-25T03:18:15;2.43;;;0.90;;
15573;SDS011;7888;46.748;8.102;2023-04-25T03:20:41;1.13;;;0.80;;
15573;SDS011;7888;46.748;8.102;2023-04-25T03:23:07;2.50;;;1.00;;
15573;SDS011;7888;46.748;8.102;2023-04-25T03:25:33;2.70;;;1.03;;
15573;SDS011;7888;46.748;8.102;2023-04-25T03:28:00;1.97;;;1.17;;
15573;SDS011;7888;46.748;8.102;2023-04-25T03:30:26;2.00;;;0.90;;
15573;SDS011;7888;46.748;8.102;2023-04-25T03:32:52;1.53;;;0.97;;
15573;SDS011;7888;46.748;8.102;2023-04-25T03:35:17;1.93;;;1.27;;
15573;SDS011;7888;46.748;8.102;2023-04-25T03:37:43;2.97;;;1.13;;
15573;SDS011;7888;46.748;8.102;2023-04-25T03:40:12;1.47;;;1.17;;
15573;SDS011;7888;46.748;8.102;2023-04-25T03:42:38;3.90;;;1.30;;
15573;SDS011;7888;46.748;8.102;2023-04-25T03:45:04;2.47;;;1.27;;
15573;SDS011;7888;46.748;8.102;2023-04-25T03:47:30;1.10;;;1.00;;
15573;SDS011;7888;46.748;8.102;2023-04-25T03:49:56;3.33;;;1.30;;
15573;SDS011;7888;46.748;8.102;2023-04-25T03:52:22;1.77;;;1.20;;
15573;SDS011;7888;46.748;8.102;2023-04-25T03:54:48;1.93;;;1.13;;
15573;SDS011;7888;46.748;8.102;2023-04-25T03:57:13;3.20;;;1.30;;
15573;SDS011;7888;46.748;8.102;2023-04-25T03:59:39;2.97;;;1.37;;
15573;SDS011;7888;46.748;8.102;2023-04-25T04:02:05;1.00;;;0.73;;
15573;SDS011;7888;46.748;8.102;2023-04-25T04:04:31;1.23;;;0.90;;
15573;SDS011;7888;46.748;8.102;2023-04-25T04:06:57;1.67;;;0.90;;
15573;SDS011;7888;46.748;8.102;2023-04-25T04:09:22;2.60;;;1.27;;
15573;SDS011;7888;46.748;8.102;2023-04-25T04:11:48;1.87;;;0.93;;
15573;SDS011;7888;46.748;8.102;2023-04-25T04:14:14;2.23;;;1.00;;
15573;SDS011;7888;46.748;8.102;2023-04-25T04:16:40;3.27;;;1.10;;
15573;SDS011;7888;46.748;8.102;2023-04-25T04:19:06;1.63;;;0.80;;
15573;SDS011;7888;46.748;8.102;2023-04-25T04:21:32;1.57;;;0.70;;
15573;SDS011;7888;46.748;8.102;2023-04-25T04:23:58;2.30;;;1.33;;
15573;SDS011;7888;46.748;8.102;2023-04-25T04:26:25;1.87;;;1.30;;
15573;SDS011;7888;46.748;8.102;2023-04-25T04:28:51;1.77;;;1.13;;
15573;SDS011;7888;46.748;8.102;2023-04-25T04:31:19;2.20;;;0.90;;
15573;SDS011;7888;46.748;8.102;2023-04-25T04:33:46;2.27;;;1.10;;
15573;SDS011;7888;46.748;8.102;2023-04-25T04:36:12;1.57;;;1.10;;
15573;SDS011;7888;46.748;8.102;2023-04-25T04:38:39;2.47;;;1.20;;
15573;SDS011;7888;46.748;8.102;2023-04-25T04:41:06;2.97;;;1.43;;
15573;SDS011;7888;46.748;8.102;2023-04-25T04:43:32;1.60;;;1.10;;
15573;SDS011;7888;46.748;8.102;2023-04-25T04:45:58;1.40;;;1.10;;
15573;SDS011;7888;46.748;8.102;2023-04-25T04:48:29;2.60;;;0.67;;
15573;SDS011;7888;46.748;8.102;2023-04-25T04:50:59;1.47;;;0.73;;
15573;SDS011;7888;46.748;8.102;2023-04-25T04:53:25;1.80;;;0.70;;
15573;SDS011;7888;46.748;8.102;2023-04-25T04:55:52;1.37;;;0.70;;
15573;SDS011;7888;46.748;8.102;2023-04-25T04:58:18;1.40;;;0.80;;
15573;SDS011;7888;46.748;8.102;2023-04-25T05:00:44;2.53;;;0.67;;
15573;SDS011;7888;46.748;8.102;2023-04-25T05:03:10;1.33;;;0.60;;
15573;SDS011;7888;46.748;8.102;2023-04-25T05:05:36;2.47;;;0.90;;
15573;SDS011;7888;46.748;8.102;2023-04-25T05:08:05;1.10;;;0.57;;
15573;SDS011;7888;46.748;8.102;2023-04-25T05:10:31;1.37;;;0.80;;
15573;SDS011;7888;46.748;8.102;2023-04-25T05:12:57;0.80;;;0.77;;
15573;SDS011;7888;46.748;8.102;2023-04-25T05:15:23;1.60;;;0.67;;
15573;SDS011;7888;46.748;8.102;2023-04-25T05:17:49;1.43;;;0.70;;
15573;SDS011;7888;46.748;8.102;2023-04-25T05:20:14;1.73;;;0.80;;
15573;SDS011;7888;46.748;8.102;2023-04-25T05:22:40;1.10;;;0.70;;
15573;SDS011;7888;46.748;8.102;2023-04-25T05:25:07;1.97;;;1.13;;
15573;SDS011;7888;46.748;8.102;2023-04-25T05:27:34;1.23;;;0.67;;
15573;SDS011;7888;46.748;8.102;2023-04-25T05:30:00;1.67;;;0.80;;
15573;SDS011;7888;46.748;8.102;2023-04-25T05:32:26;5.80;;;4.17;;
15573;SDS011;7888;46.748;8.102;2023-04-25T05:34:52;3.63;;;3.03;;
15573;SDS011;7888;46.748;8.102;2023-04-25T05:37:18;2.80;;;2.40;;
15573;SDS011;7888;46.748;8.102;2023-04-25T05:39:44;2.40;;;2.20;;
15573;SDS011;7888;46.748;8.102;2023-04-25T05:42:10;1.40;;;1.30;;
15573;SDS011;7888;46.748;8.102;2023-04-25T05:44:35;2.23;;;1.37;;
15573;SDS011;7888;46.748;8.102;2023-04-25T05:47:01;2.80;;;1.50;;
15573;SDS011;7888;46.748;8.102;2023-04-25T05:49:29;2.83;;;1.40;;
15573;SDS011;7888;46.748;8.102;2023-04-25T05:51:55;3.20;;;1.87;;
15573;SDS011;7888;46.748;8.102;2023-04-25T05:54:20;2.07;;;1.17;;
15573;SDS011;7888;46.748;8.102;2023-04-25T05:56:46;1.60;;;0.93;;
15573;SDS011;7888;46.748;8.102;2023-04-25T05:59:12;2.13;;;1.13;;
15573;SDS011;7888;46.748;8.102;2023-04-25T06:01:38;1.83;;;0.90;;
15573;SDS011;7888;46.748;8.102;2023-04-25T06:04:04;1.33;;;1.00;;
15573;SDS011;7888;46.748;8.102;2023-04-25T06:06:29;2.67;;;1.33;;
15573;SDS011;7888;46.748;8.102;2023-04-25T06:08:55;1.60;;;1.00;;
15573;SDS011;7888;46.748;8.102;2023-04-25T06:11:21;1.40;;;1.20;;
15573;SDS011;7888;46.748;8.102;2023-04-25T06:13:47;2.07;;;1.10;;
15573;SDS011;7888;46.748;8.102;2023-04-25T06:16:13;0.70;;;0.70;;
15573;SDS011;7888;46.748;8.102;2023-04-25T06:18:38;2.20;;;0.97;;
15573;SDS011;7888;46.748;8.102;2023-04-25T06:21:04;1.40;;;0.97;;
15573;SDS011;7888;46.748;8.102;2023-04-25T06:23:30;1.30;;;0.80;;
15573;SDS011;7888;46.748;8.102;2023-04-25T06:25:56;1.47;;;1.07;;
15573;SDS011;7888;46.748;8.102;2023-04-25T06:28:22;2.07;;;1.20;;
15573;SDS011;7888;46.748;8.102;2023-04-25T06:30:49;3.83;;;1.50;;
15573;SDS011;7888;46.748;8.102;2023-04-25T06:33:15;1.10;;;0.90;;
15573;SDS011;7888;46.748;8.102;2023-04-25T06:35:41;2.33;;;1.10;;
15573;SDS011;7888;46.748;8.102;2023-04-25T06:38:07;2.07;;;1.27;;
15573;SDS011;7888;46.748;8.102;2023-04-25T06:40:33;1.73;;;0.80;;
15573;SDS011;7888;46.748;8.102;2023-04-25T06:42:59;1.00;;;0.83;;
15573;SDS011;7888;46.748;8.102;2023-04-25T06:45:25;0.73;;;0.70;;
15573;SDS011;7888;46.748;8.102;2023-04-25T06:47:51;1.30;;;0.70;;
15573;SDS011;7888;46.748;8.102;2023-04-25T06:50:17;2.07;;;0.90;;
15573;SDS011;7888;46.748;8.102;2023-04-25T06:52:42;1.27;;;0.60;;
15573;SDS011;7888;46.748;8.102;2023-04-25T06:55:08;1.27;;;0.73;;
15573;SDS011;7888;46.748;8.102;2023-04-25T06:57:34;1.27;;;0.77;;
15573;SDS011;7888;46.748;8.102;2023-04-25T07:00:00;1.30;;;0.90;;
15573;SDS011;7888;46.748;8.102;2023-04-25T07:02:26;0.50;;;0.50;;
15573;SDS011;7888;46.748;8.102;2023-04-25T07:04:52;1.47;;;0.60;;
15573;SDS011;7888;46.748;8.102;2023-04-25T07:07:18;1.27;;;0.60;;
15573;SDS011;7888;46.748;8.102;2023-04-25T07:09:43;0.83;;;0.70;;
15573;SDS011;7888;46.748;8.102;2023-04-25T07:12:09;1.20;;;0.83;;
15573;SDS011;7888;46.748;8.102;2023-04-25T07:14:35;1.33;;;0.60;;
15573;SDS011;7888;46.748;8.102;2023-04-25T07:17:01;1.07;;;0.60;;
15573;SDS011;7888;46.748;8.102;2023-04-25T07:19:26;1.60;;;0.90;;
15573;SDS011;7888;46.748;8.102;2023-04-25T07:21:54;0.60;;;0.60;;
15573;SDS011;7888;46.748;8.102;2023-04-25T07:24:20;0.63;;;0.63;;
15573;SDS011;7888;46.748;8.102;2023-04-25T07:26:46;2.57;;;0.70;;
15573;SDS011;7888;46.748;8.102;2023-04-25T07:29:12;1.33;;;0.53;;
15573;SDS011;7888;46.748;8.102;2023-04-25T07:31:38;1.03;;;0.50;;
15573;SDS011;7888;46.748;8.102;2023-04-25T07:34:04;1.10;;;0.70;;
15573;SDS011;7888;46.748;8.102;2023-04-25T07:36:30;3.00;;;1.10;;
15573;SDS011;7888;46.748;8.102;2023-04-25T07:38:56;0.80;;;0.73;;
15573;SDS011;7888;46.748;8.102;2023-04-25T07:41:22;1.40;;;0.70;;
15573;SDS011;7888;46.748;8.102;2023-04-25T07:43:48;0.93;;;0.70;;
15573;SDS011;7888;46.748;8.102;2023-04-25T07:46:14;0.73;;;0.60;;
15573;SDS011;7888;46.748;8.102;2023-04-25T07:48:40;1.33;;;0.60;;
15573;SDS011;7888;46.748;8.102;2023-04-25T07:51:05;0.80;;;0.60;;
15573;SDS011;7888;46.748;8.102;2023-04-25T07:53:32;1.00;;;0.53;;
15573;SDS011;7888;46.748;8.102;2023-04-25T07:55:59;0.97;;;0.50;;
15573;SDS011;7888;46.748;8.102;2023-04-25T07:58:25;1.03;;;0.60;;
15573;SDS011;7888;46.748;8.102;2023-04-25T08:00:51;0.90;;;0.60;;
15573;SDS011;7888;46.748;8.102;2023-04-25T08:03:17;0.50;;;0.50;;
15573;SDS011;7888;46.748;8.102;2023-04-25T08:05:43;0.93;;;0.53;;
15573;SDS011;7888;46.748;8.102;2023-04-25T08:08:08;2.37;;;0.60;;
15573;SDS011;7888;46.748;8.102;2023-04-25T08:10:34;0.93;;;0.50;;
15573;SDS011;7888;46.748;8.102;2023-04-25T08:13:00;1.03;;;0.60;;
15573;SDS011;7888;46.748;8.102;2023-04-25T08:15:26;0.80;;;0.53;;
15573;SDS011;7888;46.748;8.102;2023-04-25T08:17:52;1.73;;;0.60;;
15573;SDS011;7888;46.748;8.102;2023-04-25T08:20:17;0.70;;;0.37;;
15573;SDS011;7888;46.748;8.102;2023-04-25T08:22:43;1.03;;;0.43;;
15573;SDS011;7888;46.748;8.102;2023-04-25T08:25:09;0.57;;;0.50;;
15573;SDS011;7888;46.748;8.102;2023-04-25T08:27:35;0.60;;;0.60;;
15573;SDS011;7888;46.748;8.102;2023-04-25T08:30:02;0.70;;;0.50;;
15573;SDS011;7888;46.748;8.102;2023-04-25T08:32:29;0.70;;;0.50;;
15573;SDS011;7888;46.748;8.102;2023-04-25T08:34:54;0.70;;;0.63;;
15573;SDS011;7888;46.748;8.102;2023-04-25T08:37:21;0.47;;;0.47;;
15573;SDS011;7888;46.748;8.102;2023-04-25T08:39:47;1.13;;;0.50;;
15573;SDS011;7888;46.748;8.102;2023-04-25T08:42:17;1.00;;;0.60;;
15573;SDS011;7888;46.748;8.102;2023-04-25T08:44:45;1.43;;;0.70;;
15573;SDS011;7888;46.748;8.102;2023-04-25T08:47:13;1.03;;;0.73;;
15573;SDS011;7888;46.748;8.102;2023-04-25T08:49:39;0.73;;;0.70;;
15573;SDS011;7888;46.748;8.102;2023-04-25T08:52:11;1.20;;;0.90;;
15573;SDS011;7888;46.748;8.102;2023-04-25T08:54:41;1.07;;;0.73;;
15573;SDS011;7888;46.748;8.102;2023-04-25T08:57:11;0.53;;;0.53;;
15573;SDS011;7888;46.748;8.102;2023-04-25T08:59:39;1.00;;;0.47;;
15573;SDS011;7888;46.748;8.102;2023-04-25T09:02:09;0.73;;;0.50;;
15573;SDS011;7888;46.748;8.102;2023-04-25T09:04:39;0.60;;;0.60;;
15573;SDS011;7888;46.748;8.102;2023-04-25T09:07:07;0.77;;;0.60;;
15573;SDS011;7888;46.748;8.102;2023-04-25T09:09:33;1.17;;;0.50;;
15573;SDS011;7888;46.748;8.102;2023-04-25T09:12:00;0.67;;;0.67;;
15573;SDS011;7888;46.748;8.102;2023-04-25T09:14:26;0.90;;;0.50;;
15573;SDS011;7888;46.748;8.102;2023-04-25T09:19:21;1.23;;;0.60;;
15573;SDS011;7888;46.748;8.102;2023-04-25T09:21:53;1.00;;;0.80;;
15573;SDS011;7888;46.748;8.102;2023-04-25T09:27:18;0.87;;;0.70;;
15573;SDS011;7888;46.748;8.102;2023-04-25T09:29:56;1.80;;;0.70;;
15573;SDS011;7888;46.748;8.102;2023-04-25T09:32:27;0.60;;;0.60;;
15573;SDS011;7888;46.748;8.102;2023-04-25T09:34:53;0.87;;;0.80;;
15573;SDS011;7888;46.748;8.102;2023-04-25T09:39:55;0.70;;;0.63;;
15573;SDS011;7888;46.748;8.102;2023-04-25T09:42:26;1.20;;;0.73;;
15573;SDS011;7888;46.748;8.102;2023-04-25T09:44:54;0.93;;;0.73;;
15573;SDS011;7888;46.748;8.102;2023-04-25T09:47:22;2.23;;;0.90;;
15573;SDS011;7888;46.748;8.102;2023-04-25T09:49:50;0.80;;;0.80;;
15573;SDS011;7888;46.748;8.102;2023-04-25T09:52:21;0.90;;;0.80;;
15573;SDS011;7888;46.748;8.102;2023-04-25T09:54:50;0.67;;;0.60;;
15573;SDS011;7888;46.748;8.102;2023-04-25T09:57:20;0.80;;;0.50;;
15573;SDS011;7888;46.748;8.102;2023-04-25T09:59:49;0.90;;;0.70;;
15573;SDS011;7888;46.748;8.102;2023-04-25T10:02:20;0.70;;;0.67;;
15573;SDS011;7888;46.748;8.102;2023-04-25T10:04:54;0.97;;;0.80;;
15573;SDS011;7888;46.748;8.102;2023-04-25T10:07:25;1.20;;;0.73;;
15573;SDS011;7888;46.748;8.102;2023-04-25T10:10:00;0.90;;;0.80;;
15573;SDS011;7888;46.748;8.102;2023-04-25T10:12:28;2.23;;;1.00;;
15573;SDS011;7888;46.748;8.102;2023-04-25T10:14:56;1.00;;;0.90;;
15573;SDS011;7888;46.748;8.102;2023-04-25T10:17:23;1.30;;;0.90;;
15573;SDS011;7888;46.748;8.102;2023-04-25T10:19:49;1.83;;;0.93;;
15573;SDS011;7888;46.748;8.102;2023-04-25T10:22:18;1.97;;;1.00;;
15573;SDS011;7888;46.748;8.102;2023-04-25T10:24:53;0.87;;;0.70;;
15573;SDS011;7888;46.748;8.102;2023-04-25T10:27:21;2.23;;;0.90;;
15573;SDS011;7888;46.748;8.102;2023-04-25T10:29:59;1.57;;;1.03;;
15573;SDS011;7888;46.748;8.102;2023-04-25T10:32:36;1.00;;;0.70;;
15573;SDS011;7888;46.748;8.102;2023-04-25T10:35:12;1.47;;;0.70;;
15573;SDS011;7888;46.748;8.102;2023-04-25T10:40:30;1.17;;;0.67;;
15573;SDS011;7888;46.748;8.102;2023-04-25T10:46:23;0.63;;;0.60;;
15573;SDS011;7888;46.748;8.102;2023-04-25T10:48:55;0.57;;;0.53;;
15573;SDS011;7888;46.748;8.102;2023-04-25T10:56:39;0.90;;;0.50;;
15573;SDS011;7888;46.748;8.102;2023-04-25T10:59:13;0.30;;;0.30;;
15573;SDS011;7888;46.748;8.102;2023-04-25T11:01:42;2.33;;;0.30;;
15573;SDS011;7888;46.748;8.102;2023-04-25T11:04:22;0.60;;;0.50;;
15573;SDS011;7888;46.748;8.102;2023-04-25T11:09:57;0.97;;;0.30;;
15573;SDS011;7888;46.748;8.102;2023-04-25T11:12:29;1.10;;;0.30;;
15573;SDS011;7888;46.748;8.102;2023-04-25T11:15:03;0.40;;;0.40;;
15573;SDS011;7888;46.748;8.102;2023-04-25T11:17:31;0.50;;;0.40;;
15573;SDS011;7888;46.748;8.102;2023-04-25T11:19:57;0.30;;;0.30;;
15573;SDS011;7888;46.748;8.102;2023-04-25T11:22:24;0.30;;;0.30;;
15573;SDS011;7888;46.748;8.102;2023-04-25T11:24:51;0.60;;;0.27;;
15573;SDS011;7888;46.748;8.102;2023-04-25T11:27:17;0.10;;;0.10;;
15573;SDS011;7888;46.748;8.102;2023-04-25T11:29:43;0.50;;;0.30;;
15573;SDS011;7888;46.748;8.102;2023-04-25T11:32:09;0.20;;;0.20;;
15573;SDS011;7888;46.748;8.102;2023-04-25T11:34:35;0.20;;;0.10;;
15573;SDS011;7888;46.748;8.102;2023-04-25T11:37:01;0.10;;;0.10;;
15573;SDS011;7888;46.748;8.102;2023-04-25T11:39:28;0.57;;;0.30;;
15573;SDS011;7888;46.748;8.102;2023-04-25T11:41:54;0.30;;;0.20;;
15573;SDS011;7888;46.748;8.102;2023-04-25T11:44:21;0.53;;;0.30;;
15573;SDS011;7888;46.748;8.102;2023-04-25T11:46:47;0.10;;;0.10;;
15573;SDS011;7888;46.748;8.102;2023-04-25T11:49:13;1.30;;;0.30;;
15573;SDS011;7888;46.748;8.102;2023-04-25T11:51:44;0.13;;;0.13;;
15573;SDS011;7888;46.748;8.102;2023-04-25T11:54:13;0.40;;;0.30;;
15573;SDS011;7888;46.748;8.102;2023-04-25T11:56:43;0.37;;;0.37;;
15573;SDS011;7888;46.748;8.102;2023-04-25T11:59:10;0.67;;;0.57;;
15573;SDS011;7888;46.748;8.102;2023-04-25T12:01:37;1.07;;;0.23;;
15573;SDS011;7888;46.748;8.102;2023-04-25T12:04:19;0.90;;;0.50;;
15573;SDS011;7888;46.748;8.102;2023-04-25T12:06:47;0.37;;;0.30;;
15573;SDS011;7888;46.748;8.102;2023-04-25T12:09:20;0.30;;;0.30;;
15573;SDS011;7888;46.748;8.102;2023-04-25T12:11:54;0.60;;;0.37;;
15573;SDS011;7888;46.748;8.102;2023-04-25T12:14:26;0.40;;;0.40;;
15573;SDS011;7888;46.748;8.102;2023-04-25T12:16:55;0.63;;;0.40;;
15573;SDS011;7888;46.748;8.102;2023-04-25T12:19:24;1.03;;;0.40;;
15573;SDS011;7888;46.748;8.102;2023-04-25T12:21:51;2.13;;;0.50;;
15573;SDS011;7888;46.748;8.102;2023-04-25T12:24:18;0.40;;;0.40;;
15573;SDS011;7888;46.748;8.102;2023-04-25T12:29:31;0.80;;;0.40;;
15573;SDS011;7888;46.748;8.102;2023-04-25T12:31:59;0.90;;;0.33;;
15573;SDS011;7888;46.748;8.102;2023-04-25T12:34:26;0.30;;;0.30;;
15573;SDS011;7888;46.748;8.102;2023-04-25T12:36:52;0.30;;;0.30;;
15573;SDS011;7888;46.748;8.102;2023-04-25T12:39:20;1.40;;;0.40;;
15573;SDS011;7888;46.748;8.102;2023-04-25T12:41:51;0.23;;;0.23;;
15573;SDS011;7888;46.748;8.102;2023-04-25T12:44:19;0.60;;;0.50;;
15573;SDS011;7888;46.748;8.102;2023-04-25T12:46:46;0.47;;;0.40;;
15573;SDS011;7888;46.748;8.102;2023-04-25T12:49:13;0.40;;;0.30;;
15573;SDS011;7888;46.748;8.102;2023-04-25T12:51:39;1.13;;;0.43;;
15573;SDS011;7888;46.748;8.102;2023-04-25T12:54:06;1.13;;;0.60;;
15573;SDS011;7888;46.748;8.102;2023-04-25T12:56:33;0.40;;;0.40;;
15573;SDS011;7888;46.748;8.102;2023-04-25T12:59:00;0.77;;;0.33;;
15573;SDS011;7888;46.748;8.102;2023-04-25T13:01:28;0.87;;;0.50;;
15573;SDS011;7888;46.748;8.102;2023-04-25T13:03:54;0.50;;;0.50;;
15573;SDS011;7888;46.748;8.102;2023-04-25T13:06:20;0.67;;;0.60;;
15573;SDS011;7888;46.748;8.102;2023-04-25T13:08:47;1.17;;;0.57;;
15573;SDS011;7888;46.748;8.102;2023-04-25T13:11:13;0.67;;;0.60;;
15573;SDS011;7888;46.748;8.102;2023-04-25T13:13:42;0.50;;;0.50;;
15573;SDS011;7888;46.748;8.102;2023-04-25T13:16:09;0.40;;;0.40;;
15573;SDS011;7888;46.748;8.102;2023-04-25T13:18:36;0.60;;;0.50;;
15573;SDS011;7888;46.748;8.102;2023-04-25T13:21:02;0.30;;;0.30;;
15573;SDS011;7888;46.748;8.102;2023-04-25T13:23:28;0.80;;;0.43;;
15573;SDS011;7888;46.748;8.102;2023-04-25T13:25:55;0.40;;;0.30;;
15573;SDS011;7888;46.748;8.102;2023-04-25T13:28:26;0.40;;;0.40;;
15573;SDS011;7888;46.748;8.102;2023-04-25T13:30:53;0.40;;;0.40;;
15573;SDS011;7888;46.748;8.102;2023-04-25T13:33:19;0.40;;;0.40;;
15573;SDS011;7888;46.748;8.102;2023-04-25T13:35:46;0.30;;;0.30;;
15573;SDS011;7888;46.748;8.102;2023-04-25T13:38:22;0.93;;;0.60;;
15573;SDS011;7888;46.748;8.102;2023-04-25T13:40:50;0.70;;;0.40;;
15573;SDS011;7888;46.748;8.102;2023-04-25T13:43:20;0.80;;;0.40;;
15573;SDS011;7888;46.748;8.102;2023-04-25T13:45:47;0.50;;;0.37;;
15573;SDS011;7888;46.748;8.102;2023-04-25T13:48:14;0.50;;;0.40;;
15573;SDS011;7888;46.748;8.102;2023-04-25T13:50:40;1.20;;;0.43;;
15573;SDS011;7888;46.748;8.102;2023-04-25T13:53:05;0.30;;;0.30;;
15573;SDS011;7888;46.748;8.102;2023-04-25T13:55:31;0.20;;;0.20;;
15573;SDS011;7888;46.748;8.102;2023-04-25T13:58:01;0.60;;;0.30;;
15573;SDS011;7888;46.748;8.102;2023-04-25T14:00:32;0.40;;;0.40;;
15573;SDS011;7888;46.748;8.102;2023-04-25T14:03:03;0.40;;;0.40;;
15573;SDS011;7888;46.748;8.102;2023-04-25T14:05:31;0.43;;;0.40;;
15573;SDS011;7888;46.748;8.102;2023-04-25T14:08:02;0.37;;;0.37;;
15573;SDS011;7888;46.748;8.102;2023-04-25T14:10:33;0.97;;;0.40;;
15573;SDS011;7888;46.748;8.102;2023-04-25T14:13:00;0.40;;;0.40;;
15573;SDS011;7888;46.748;8.102;2023-04-25T14:15:28;0.67;;;0.40;;
15573;SDS011;7888;46.748;8.102;2023-04-25T14:17:55;0.93;;;0.40;;
15573;SDS011;7888;46.748;8.102;2023-04-25T14:20:21;1.17;;;0.40;;
15573;SDS011;7888;46.748;8.102;2023-04-25T14:22:48;0.50;;;0.30;;
15573;SDS011;7888;46.748;8.102;2023-04-25T14:25:15;0.40;;;0.40;;
15573;SDS011;7888;46.748;8.102;2023-04-25T14:27:40;0.63;;;0.43;;
15573;SDS011;7888;46.748;8.102;2023-04-25T14:30:06;0.73;;;0.50;;
15573;SDS011;7888;46.748;8.102;2023-04-25T14:32:34;0.40;;;0.40;;
15573;SDS011;7888;46.748;8.102;2023-04-25T14:35:00;0.77;;;0.40;;
15573;SDS011;7888;46.748;8.102;2023-04-25T14:37:26;0.57;;;0.50;;
15573;SDS011;7888;46.748;8.102;2023-04-25T14:39:52;0.50;;;0.50;;
15573;SDS011;7888;46.748;8.102;2023-04-25T14:42:17;0.50;;;0.40;;
15573;SDS011;7888;46.748;8.102;2023-04-25T14:44:43;0.50;;;0.40;;
15573;SDS011;7888;46.748;8.102;2023-04-25T14:47:10;0.50;;;0.50;;
15573;SDS011;7888;46.748;8.102;2023-04-25T14:49:35;0.70;;;0.40;;
15573;SDS011;7888;46.748;8.102;2023-04-25T14:52:01;0.97;;;0.50;;
15573;SDS011;7888;46.748;8.102;2023-04-25T15:01:29;0.43;;;0.43;;
15573;SDS011;7888;46.748;8.102;2023-04-25T15:03:55;0.50;;;0.50;;
15573;SDS011;7888;46.748;8.102;2023-04-25T15:06:22;0.50;;;0.40;;
15573;SDS011;7888;46.748;8.102;2023-04-25T15:08:51;0.40;;;0.40;;
15573;SDS011;7888;46.748;8.102;2023-04-25T15:11:17;0.30;;;0.30;;
15573;SDS011;7888;46.748;8.102;2023-04-25T15:13:45;0.60;;;0.40;;
15573;SDS011;7888;46.748;8.102;2023-04-25T15:16:11;0.57;;;0.40;;
15573;SDS011;7888;46.748;8.102;2023-04-25T15:18:36;0.33;;;0.30;;
15573;SDS011;7888;46.748;8.102;2023-04-25T15:21:02;0.50;;;0.30;;
15573;SDS011;7888;46.748;8.102;2023-04-25T15:23:29;1.10;;;0.50;;
15573;SDS011;7888;46.748;8.102;2023-04-25T15:25:55;0.30;;;0.30;;
15573;SDS011;7888;46.748;8.102;2023-04-25T15:28:21;0.30;;;0.30;;
15573;SDS011;7888;46.748;8.102;2023-04-25T15:30:47;1.00;;;0.50;;